Time;durP1;ratioP1;P1;durP2;ratioP2;P2;SDS_P1;SDS_P2;PMS_P1;PMS_P2;Temp;Humidity;BMP_temperature;BMP_pressure;BME280_temperature;BME280_humidity;BME280_pressure;Samples;Min_cycle;Max_cycle;Signal;HPM_P1;HPM_P2
2021/08/26 00:07:00;;;;;;;;;;;21.00;41.10;;;;;;4359023;32;19970;-36
2021/08/26 00:09:26;;;;;;;;;;;20.90;41.10;;;;;;4359522;32;19969;-35
2021/08/26 00:11:54;;;;;;;;;;;20.90;41.20;;;;;;4359421;32;20009;-37
2021/08/26 00:14:20;;;;;;;;;;;20.90;41.30;;;;;;4359791;32;20343;-36
2021/08/26 00:16:46;;;;;;;;;;;20.80;41.20;;;;;;4359696;32;20418;-37
2021/08/26 00:19:13;;;;;;;;;;;20.80;41.30;;;;;;4327082;33;19964;-37
2021/08/26 00:21:39;;;;;;;;;;;20.80;41.40;;;;;;4327339;33;20058;-37
2021/08/26 00:24:06;;;;;;;;;;;20.80;41.50;;;;;;4327900;33;20443;-38
2021/08/26 00:26:33;;;;;;;;;;;20.80;41.50;;;;;;4327103;33;20516;-38
2021/08/26 00:29:03;;;;;;;;;;;20.80;41.60;;;;;;4314951;33;20041;-37
2021/08/26 00:31:29;;;;;;;;;;;20.70;41.70;;;;;;4321663;33;19966;-37
2021/08/26 00:33:56;;;;;;;;;;;20.70;41.70;;;;;;4342222;33;19966;-38
2021/08/26 00:36:22;;;;;;;;;;;20.60;41.80;;;;;;4342357;33;19958;-37
2021/08/26 00:38:49;;;;;;;;;;;20.60;42.00;;;;;;4342017;33;19981;-38
2021/08/26 00:41:33;;;;;;;;;;;20.60;42.00;;;;;;4329431;33;20009;-38
2021/08/26 00:44:01;;;;;;;;;;;20.50;42.00;;;;;;4341637;33;20381;-38
2021/08/26 00:46:27;;;;;;;;;;;20.50;42.10;;;;;;4341647;33;19968;-36
2021/08/26 00:48:53;;;;;;;;;;;20.50;42.40;;;;;;4341893;33;19966;-37
2021/08/26 00:51:19;;;;;;;;;;;20.40;42.40;;;;;;4342123;33;20102;-37
2021/08/26 00:53:47;;;;;;;;;;;20.40;42.70;;;;;;4297551;33;19971;-37
2021/08/26 00:56:14;;;;;;;;;;;20.30;42.80;;;;;;4306632;33;20509;-37
2021/08/26 00:58:44;;;;;;;;;;;20.30;42.90;;;;;;4314969;33;19961;-37
2021/08/26 01:01:10;;;;;;;;;;;20.30;42.90;;;;;;4326913;33;19962;-36
2021/08/26 01:03:48;;;;;;;;;;;20.30;43.10;;;;;;4327140;33;19963;-38
2021/08/26 01:06:20;;;;;;;;;;;20.20;43.10;;;;;;4326830;33;20010;-38
2021/08/26 01:09:00;;;;;;;;;;;20.20;43.00;;;;;;4314576;33;19966;-37
2021/08/26 01:11:27;;;;;;;;;;;20.20;43.10;;;;;;4303068;33;19963;-37
2021/08/26 01:13:53;;;;;;;;;;;20.20;43.00;;;;;;4314818;33;19982;-37
2021/08/26 01:16:20;;;;;;;;;;;20.20;43.10;;;;;;4302884;33;20472;-38
2021/08/26 01:18:46;;;;;;;;;;;20.20;43.10;;;;;;4314488;33;19985;-37
2021/08/26 01:21:13;;;;;;;;;;;20.20;43.10;;;;;;4326660;33;19966;-37
2021/08/26 01:23:42;;;;;;;;;;;20.20;43.10;;;;;;4328979;32;19954;-36
2021/08/26 01:26:08;;;;;;;;;;;20.10;43.20;;;;;;4373515;32;20015;-36
2021/08/26 01:28:36;;;;;;;;;;;20.10;43.40;;;;;;4373492;32;19957;-37
2021/08/26 01:31:02;;;;;;;;;;;20.10;43.30;;;;;;4370042;32;19969;-38
2021/08/26 01:33:29;;;;;;;;;;;20.10;43.40;;;;;;4359040;32;19970;-38
2021/08/26 01:35:55;;;;;;;;;;;20.00;43.40;;;;;;4344544;32;19969;-36
2021/08/26 01:38:23;;;;;;;;;;;20.00;43.40;;;;;;4345067;32;19965;-37
2021/08/26 01:40:49;;;;;;;;;;;20.00;43.30;;;;;;4358353;32;19958;-36
2021/08/26 01:43:16;;;;;;;;;;;20.10;43.30;;;;;;4358314;32;19989;-37
2021/08/26 01:45:48;;;;;;;;;;;20.10;43.20;;;;;;4358434;32;20427;-37
2021/08/26 01:48:18;;;;;;;;;;;20.10;43.00;;;;;;4358439;32;20479;-37
2021/08/26 01:50:45;;;;;;;;;;;20.10;42.90;;;;;;4358331;32;19966;-37
2021/08/26 01:53:11;;;;;;;;;;;20.10;42.90;;;;;;4358726;32;19953;-37
2021/08/26 01:55:40;;;;;;;;;;;20.10;42.80;;;;;;4344782;32;19964;-36
2021/08/26 01:58:08;;;;;;;;;;;20.10;42.80;;;;;;4358240;32;20112;-37
2021/08/26 02:00:34;;;;;;;;;;;20.20;42.80;;;;;;4358569;32;19953;-37
2021/08/26 02:03:00;;;;;;;;;;;20.20;42.80;;;;;;4358360;32;19970;-38
2021/08/26 02:05:27;;;;;;;;;;;20.20;42.60;;;;;;4358638;32;19954;-36
2021/08/26 02:07:53;;;;;;;;;;;20.20;42.60;;;;;;4358364;32;20011;-38
2021/08/26 02:10:20;;;;;;;;;;;20.20;42.60;;;;;;4357974;32;19976;-36
2021/08/26 02:12:46;;;;;;;;;;;20.30;42.50;;;;;;4344378;32;19958;-37
2021/08/26 02:15:12;;;;;;;;;;;20.30;42.50;;;;;;4344299;32;20421;-37
2021/08/26 02:17:38;;;;;;;;;;;20.30;42.30;;;;;;4358311;32;20050;-37
2021/08/26 02:20:06;;;;;;;;;;;20.40;42.20;;;;;;4357952;32;19973;-36
2021/08/26 02:22:32;;;;;;;;;;;20.30;42.20;;;;;;4358374;32;19988;-36
2021/08/26 02:24:58;;;;;;;;;;;20.30;42.20;;;;;;4357984;32;19966;-37
2021/08/26 02:27:24;;;;;;;;;;;20.40;42.20;;;;;;4358685;32;20037;-36
2021/08/26 02:29:51;;;;;;;;;;;20.40;42.10;;;;;;4359296;32;19964;-37
2021/08/26 02:32:17;;;;;;;;;;;20.40;42.10;;;;;;4360917;32;19973;-36
2021/08/26 02:34:43;;;;;;;;;;;20.40;42.10;;;;;;4361150;32;19988;-36
2021/08/26 02:37:09;;;;;;;;;;;20.50;41.90;;;;;;4360911;32;20355;-37
2021/08/26 02:39:36;;;;;;;;;;;20.60;41.80;;;;;;4360919;32;20422;-37
2021/08/26 02:42:03;;;;;;;;;;;20.60;41.60;;;;;;4361317;32;19973;-36
2021/08/26 02:44:29;;;;;;;;;;;20.70;41.60;;;;;;4361294;32;19961;-37
2021/08/26 02:46:56;;;;;;;;;;;20.70;41.50;;;;;;4359642;32;19977;-37
2021/08/26 02:49:22;;;;;;;;;;;20.70;41.50;;;;;;4361064;32;19946;-36
2021/08/26 02:51:49;;;;;;;;;;;20.70;41.30;;;;;;4360874;32;19969;-36
2021/08/26 02:54:15;;;;;;;;;;;20.80;41.30;;;;;;4361063;32;20045;-36
2021/08/26 02:56:43;;;;;;;;;;;20.90;41.20;;;;;;4360599;32;19957;-36
2021/08/26 02:59:10;;;;;;;;;;;20.90;41.10;;;;;;4360704;32;19966;-37
2021/08/26 03:01:36;;;;;;;;;;;21.00;40.90;;;;;;4360792;32;20035;-37
2021/08/26 03:04:02;;;;;;;;;;;21.10;40.80;;;;;;4360353;32;20059;-37
2021/08/26 03:06:28;;;;;;;;;;;21.20;40.60;;;;;;4360533;32;20004;-36
2021/08/26 03:08:54;;;;;;;;;;;21.40;40.40;;;;;;4360665;32;19973;-37
2021/08/26 03:11:20;;;;;;;;;;;21.50;40.00;;;;;;4360416;32;19965;-37
2021/08/26 03:13:47;;;;;;;;;;;21.60;39.70;;;;;;4360102;32;20055;-38
2021/08/26 03:16:13;;;;;;;;;;;21.80;39.40;;;;;;4360127;32;20507;-38
2021/08/26 03:18:39;;;;;;;;;;;21.90;39.90;;;;;;4360316;32;20378;-36
2021/08/26 03:21:05;;;;;;;;;;;22.10;39.10;;;;;;4375067;32;19974;-38
2021/08/26 03:23:31;;;;;;;;;;;22.30;38.70;;;;;;4375419;32;20346;-38
2021/08/26 03:25:58;;;;;;;;;;;22.30;38.30;;;;;;4375267;32;19966;-37
2021/08/26 03:28:24;;;;;;;;;;;22.40;38.30;;;;;;4360795;32;20505;-36
2021/08/26 03:30:50;;;;;;;;;;;22.40;38.00;;;;;;4358508;32;19957;-38
2021/08/26 03:33:16;;;;;;;;;;;22.40;38.20;;;;;;4360339;32;19973;-37
2021/08/26 03:35:43;;;;;;;;;;;22.50;38.20;;;;;;4360282;32;20437;-37
2021/08/26 03:38:09;;;;;;;;;;;22.50;38.20;;;;;;4360169;32;19985;-39
2021/08/26 03:40:35;;;;;;;;;;;22.60;38.00;;;;;;4359652;32;19946;-37
2021/08/26 03:43:01;;;;;;;;;;;22.80;37.90;;;;;;4358662;32;19954;-36
2021/08/26 03:45:28;;;;;;;;;;;22.80;37.50;;;;;;4360093;32;20339;-37
2021/08/26 03:47:54;;;;;;;;;;;22.80;37.20;;;;;;4360229;32;20009;-37
2021/08/26 03:50:20;;;;;;;;;;;22.80;37.40;;;;;;4360108;32;20386;-38
2021/08/26 03:52:46;;;;;;;;;;;22.90;37.40;;;;;;4359555;32;19978;-38
2021/08/26 03:55:12;;;;;;;;;;;22.90;37.20;;;;;;4359573;32;19950;-38
2021/08/26 03:57:39;;;;;;;;;;;23.00;37.10;;;;;;4359934;32;19961;-38
2021/08/26 04:00:06;;;;;;;;;;;23.10;36.90;;;;;;4359952;32;19954;-37
2021/08/26 04:02:32;;;;;;;;;;;23.10;36.80;;;;;;4360181;32;19957;-39
2021/08/26 04:04:58;;;;;;;;;;;23.20;36.60;;;;;;4360052;32;20028;-39
2021/08/26 04:07:25;;;;;;;;;;;23.20;36.50;;;;;;4359276;32;20411;-38
2021/08/26 04:09:52;;;;;;;;;;;23.30;36.60;;;;;;4359759;32;19985;-38
2021/08/26 04:12:18;;;;;;;;;;;23.40;36.50;;;;;;4359535;32;20387;-38
2021/08/26 04:14:44;;;;;;;;;;;23.40;36.40;;;;;;4359826;32;19966;-39
2021/08/26 04:17:10;;;;;;;;;;;23.50;36.30;;;;;;4345389;32;19958;-38
2021/08/26 04:19:37;;;;;;;;;;;23.50;36.30;;;;;;4359443;32;19962;-38
2021/08/26 04:22:03;;;;;;;;;;;23.60;36.10;;;;;;4359461;32;20012;-38
2021/08/26 04:24:29;;;;;;;;;;;23.70;36.20;;;;;;4359197;32;19965;-38
2021/08/26 04:26:55;;;;;;;;;;;23.90;35.90;;;;;;4345169;32;19982;-37
2021/08/26 04:29:21;;;;;;;;;;;24.00;35.70;;;;;;4358946;32;19968;-37
2021/08/26 04:31:47;;;;;;;;;;;24.10;35.50;;;;;;4359300;32;19965;-38
2021/08/26 04:34:14;;;;;;;;;;;24.30;35.30;;;;;;4358180;32;19957;-38
2021/08/26 04:36:40;;;;;;;;;;;24.30;34.80;;;;;;4359645;32;19956;-38
2021/08/26 04:39:06;;;;;;;;;;;24.40;34.80;;;;;;4359759;32;19961;-39
2021/08/26 04:41:33;;;;;;;;;;;24.40;34.70;;;;;;4360423;32;19990;-38
2021/08/26 04:43:59;;;;;;;;;;;24.50;34.70;;;;;;4359521;32;19973;-37
2021/08/26 04:46:25;;;;;;;;;;;24.60;34.40;;;;;;4359132;32;19965;-37
2021/08/26 04:48:51;;;;;;;;;;;24.70;34.40;;;;;;4355904;32;19995;-38
2021/08/26 04:51:17;;;;;;;;;;;24.80;34.10;;;;;;4356683;32;19957;-39
2021/08/26 04:53:43;;;;;;;;;;;25.00;34.10;;;;;;4356329;32;19981;-38
2021/08/26 04:56:10;;;;;;;;;;;25.20;33.80;;;;;;4356168;32;20498;-39
2021/08/26 04:58:38;;;;;;;;;;;25.40;33.50;;;;;;4344275;32;19954;-39
2021/08/26 05:01:04;;;;;;;;;;;25.50;33.20;;;;;;4356504;32;20517;-37
2021/08/26 05:03:30;;;;;;;;;;;25.80;33.00;;;;;;4356586;32;19958;-38
2021/08/26 05:05:56;;;;;;;;;;;26.00;32.60;;;;;;4356349;32;19969;-38
2021/08/26 05:08:22;;;;;;;;;;;26.10;32.20;;;;;;4356393;32;20462;-38
2021/08/26 05:10:49;;;;;;;;;;;26.30;31.90;;;;;;4356673;32;20087;-39
2021/08/26 05:13:15;;;;;;;;;;;26.40;31.70;;;;;;4343536;32;19973;-39
2021/08/26 05:15:41;;;;;;;;;;;26.60;31.40;;;;;;4356218;32;19988;-39
2021/08/26 05:18:10;;;;;;;;;;;26.80;31.30;;;;;;4356384;32;20043;-39
2021/08/26 05:20:36;;;;;;;;;;;26.90;30.70;;;;;;4356350;32;20088;-39
2021/08/26 05:23:02;;;;;;;;;;;27.00;30.50;;;;;;4356112;32;19962;-38
2021/08/26 05:25:29;;;;;;;;;;;27.10;30.40;;;;;;4356398;32;19984;-37
2021/08/26 05:27:55;;;;;;;;;;;27.20;30.10;;;;;;4358502;32;20076;-38
2021/08/26 05:30:21;;;;;;;;;;;27.30;30.10;;;;;;4358386;32;19965;-39
2021/08/26 05:32:48;;;;;;;;;;;27.30;30.00;;;;;;4358516;32;19947;-38
2021/08/26 05:35:14;;;;;;;;;;;27.40;30.00;;;;;;4358601;32;19964;-39
2021/08/26 05:37:40;;;;;;;;;;;27.50;30.00;;;;;;4332961;32;19969;-39
2021/08/26 05:40:07;;;;;;;;;;;27.60;29.90;;;;;;4358184;32;20025;-38
2021/08/26 05:42:34;;;;;;;;;;;27.70;29.70;;;;;;4344138;32;20062;-38
2021/08/26 05:45:00;;;;;;;;;;;27.80;29.70;;;;;;4358300;32;20001;-39
2021/08/26 05:47:26;;;;;;;;;;;27.90;29.60;;;;;;4358027;32;20406;-38
2021/08/26 05:49:52;;;;;;;;;;;28.10;29.40;;;;;;4358007;32;19966;-38
2021/08/26 05:52:18;;;;;;;;;;;28.20;29.30;;;;;;4358156;32;20040;-38
2021/08/26 05:54:45;;;;;;;;;;;28.30;29.20;;;;;;4357960;32;20456;-37
2021/08/26 05:57:11;;;;;;;;;;;28.40;29.20;;;;;;4357983;32;19980;-38
2021/08/26 05:59:37;;;;;;;;;;;28.50;29.20;;;;;;4358328;32;20387;-38
2021/08/26 06:02:03;;;;;;;;;;;28.70;29.00;;;;;;4357814;32;20034;-38
2021/08/26 06:04:29;;;;;;;;;;;28.80;29.00;;;;;;4359128;32;19982;-37
2021/08/26 06:06:56;;;;;;;;;;;29.00;28.70;;;;;;4361140;32;19988;-39
2021/08/26 06:09:22;;;;;;;;;;;29.10;28.50;;;;;;4360893;32;19954;-39
2021/08/26 06:11:48;;;;;;;;;;;29.20;28.30;;;;;;4361247;32;19981;-38
2021/08/26 06:14:14;;;;;;;;;;;29.30;27.90;;;;;;4361115;32;19965;-38
2021/08/26 06:16:40;;;;;;;;;;;29.40;27.80;;;;;;4361051;32;19961;-38
2021/08/26 06:19:06;;;;;;;;;;;29.60;27.70;;;;;;4347180;32;20398;-38
2021/08/26 06:21:33;;;;;;;;;;;29.70;27.50;;;;;;4361445;32;19989;-37
2021/08/26 06:23:59;;;;;;;;;;;29.90;27.20;;;;;;4360639;32;20469;-38
2021/08/26 06:26:25;;;;;;;;;;;30.00;26.90;;;;;;4361173;32;19954;-38
2021/08/26 06:28:51;;;;;;;;;;;30.10;26.70;;;;;;4346540;32;20382;-39
2021/08/26 06:31:17;;;;;;;;;;;30.10;26.60;;;;;;4360842;32;19970;-37
2021/08/26 06:33:45;;;;;;;;;;;30.10;26.40;;;;;;4360866;32;20400;-38
2021/08/26 06:36:11;;;;;;;;;;;30.20;26.30;;;;;;4361069;32;20110;-38
2021/08/26 06:38:37;;;;;;;;;;;30.20;26.10;;;;;;4360880;32;19985;-38
2021/08/26 06:41:03;;;;;;;;;;;30.20;25.90;;;;;;4360499;32;20015;-38
2021/08/26 06:43:29;;;;;;;;;;;30.20;26.00;;;;;;4360949;32;19973;-38
2021/08/26 06:45:55;;;;;;;;;;;30.40;26.20;;;;;;4360793;32;19985;-38
2021/08/26 06:48:22;;;;;;;;;;;30.60;26.00;;;;;;4360400;32;20426;-38
2021/08/26 06:50:48;;;;;;;;;;;30.70;25.20;;;;;;4359115;32;20464;-39
2021/08/26 06:53:14;;;;;;;;;;;30.70;25.50;;;;;;4360461;32;19945;-37
2021/08/26 06:55:40;;;;;;;;;;;30.70;25.50;;;;;;4361121;32;19954;-38
2021/08/26 06:58:07;;;;;;;;;;;30.90;25.50;;;;;;4361000;32;19961;-38
2021/08/26 07:00:33;;;;;;;;;;;31.00;25.30;;;;;;4360746;32;20362;-38
2021/08/26 07:02:59;;;;;;;;;;;31.00;24.90;;;;;;4360949;32;19953;-38
2021/08/26 07:05:25;;;;;;;;;;;31.10;25.00;;;;;;4360590;32;19966;-38
2021/08/26 07:07:52;;;;;;;;;;;31.20;24.90;;;;;;4360586;32;20020;-39
2021/08/26 07:10:18;;;;;;;;;;;31.30;24.70;;;;;;4360883;32;19999;-38
2021/08/26 07:12:44;;;;;;;;;;;31.40;24.90;;;;;;4360329;32;19969;-39
2021/08/26 07:15:10;;;;;;;;;;;31.40;24.60;;;;;;4360233;32;20038;-38
2021/08/26 07:17:37;;;;;;;;;;;31.40;24.70;;;;;;4360129;32;19965;-38
2021/08/26 07:20:05;;;;;;;;;;;31.50;24.80;;;;;;4368317;32;20024;-38
2021/08/26 07:22:31;;;;;;;;;;;31.50;24.50;;;;;;4357342;32;20472;-39
2021/08/26 07:24:57;;;;;;;;;;;31.50;24.50;;;;;;4357999;32;19970;-37
2021/08/26 07:27:24;;;;;;;;;;;31.60;24.40;;;;;;4357350;32;19954;-38
2021/08/26 07:29:50;;;;;;;;;;;31.80;24.40;;;;;;4357609;32;19977;-37
2021/08/26 07:32:16;;;;;;;;;;;31.90;24.10;;;;;;4346390;32;19958;-39
2021/08/26 07:34:42;;;;;;;;;;;32.10;24.20;;;;;;4342966;33;19962;-38
2021/08/26 07:37:08;;;;;;;;;;;32.20;24.10;;;;;;4343099;33;19969;-39
2021/08/26 07:39:35;;;;;;;;;;;32.20;24.20;;;;;;4342615;33;19969;-38
2021/08/26 07:42:01;;;;;;;;;;;32.20;24.20;;;;;;4342569;33;19970;-37
2021/08/26 07:44:27;;;;;;;;;;;32.30;24.40;;;;;;4342327;33;19957;-38
2021/08/26 07:46:53;;;;;;;;;;;32.30;24.20;;;;;;4342358;33;20493;-38
2021/08/26 07:49:19;;;;;;;;;;;32.40;25.00;;;;;;4342650;33;19958;-38
2021/08/26 07:51:46;;;;;;;;;;;32.40;24.40;;;;;;4342920;33;19997;-38
2021/08/26 07:54:12;;;;;;;;;;;32.40;24.00;;;;;;4342324;33;20382;-39
2021/08/26 07:56:38;;;;;;;;;;;32.30;24.40;;;;;;4342583;33;20067;-37
2021/08/26 07:59:05;;;;;;;;;;;32.40;24.40;;;;;;4344576;32;20501;-38
2021/08/26 08:01:31;;;;;;;;;;;32.50;24.50;;;;;;4359672;32;20545;-37
2021/08/26 08:03:57;;;;;;;;;;;32.60;24.40;;;;;;4359265;32;19988;-38
2021/08/26 08:06:24;;;;;;;;;;;32.70;24.60;;;;;;4359761;32;20018;-38
2021/08/26 08:08:50;;;;;;;;;;;32.80;24.50;;;;;;4359615;32;19989;-39
2021/08/26 08:11:16;;;;;;;;;;;32.80;24.60;;;;;;4359801;32;19958;-38
2021/08/26 08:13:43;;;;;;;;;;;32.70;24.60;;;;;;4359774;32;19985;-38
2021/08/26 08:16:10;;;;;;;;;;;32.70;24.70;;;;;;4359152;32;19989;-38
2021/08/26 08:18:37;;;;;;;;;;;32.70;24.60;;;;;;4359363;32;19984;-38
2021/08/26 08:21:03;;;;;;;;;;;32.60;24.60;;;;;;4345340;32;19957;-38
2021/08/26 08:23:30;;;;;;;;;;;32.70;24.60;;;;;;4359144;32;19969;-38
2021/08/26 08:25:56;;;;;;;;;;;32.80;24.60;;;;;;4359396;32;20092;-39
2021/08/26 08:28:23;;;;;;;;;;;32.90;24.30;;;;;;4358642;32;20013;-38
2021/08/26 08:30:49;;;;;;;;;;;32.90;24.10;;;;;;4359575;32;19957;-37
2021/08/26 08:33:16;;;;;;;;;;;33.00;24.00;;;;;;4359348;32;20032;-38
2021/08/26 08:35:42;;;;;;;;;;;33.00;23.70;;;;;;4359356;32;20050;-38
2021/08/26 08:38:08;;;;;;;;;;;33.00;23.70;;;;;;4358686;32;20345;-38
2021/08/26 08:40:35;;;;;;;;;;;33.20;23.80;;;;;;4344822;32;20479;-38
2021/08/26 08:43:01;;;;;;;;;;;33.30;23.40;;;;;;4359171;32;20013;-38
2021/08/26 08:45:28;;;;;;;;;;;33.40;23.50;;;;;;4358970;32;19950;-38
2021/08/26 08:47:54;;;;;;;;;;;33.60;23.70;;;;;;4345409;32;20127;-38
2021/08/26 08:50:24;;;;;;;;;;;33.70;23.60;;;;;;4358733;32;20381;-39
2021/08/26 08:52:51;;;;;;;;;;;33.90;23.40;;;;;;4358873;32;20124;-39
2021/08/26 08:55:17;;;;;;;;;;;33.80;23.00;;;;;;4358881;32;20026;-39
2021/08/26 08:57:43;;;;;;;;;;;33.80;23.10;;;;;;4358982;32;19999;-39
2021/08/26 09:00:11;;;;;;;;;;;33.90;23.30;;;;;;4358692;32;19964;-38
2021/08/26 09:02:38;;;;;;;;;;;34.00;23.30;;;;;;4359008;32;20043;-38
2021/08/26 09:05:04;;;;;;;;;;;34.10;23.10;;;;;;4358738;32;20391;-37
2021/08/26 09:07:32;;;;;;;;;;;34.10;23.10;;;;;;4345014;32;19970;-39
2021/08/26 09:09:58;;;;;;;;;;;34.30;22.90;;;;;;4358689;32;20327;-38
2021/08/26 09:12:40;;;;;;;;;;;34.30;22.60;;;;;;4358523;32;19961;-38
2021/08/26 09:15:10;;;;;;;;;;;34.30;22.60;;;;;;4358284;32;20399;-38
2021/08/26 09:17:37;;;;;;;;;;;34.30;22.60;;;;;;4358593;32;19964;-38
2021/08/26 09:20:08;;;;;;;;;;;34.30;22.60;;;;;;4366331;32;20373;-39
2021/08/26 09:22:34;;;;;;;;;;;34.40;22.60;;;;;;4359667;32;19961;-39
2021/08/26 09:25:01;;;;;;;;;;;34.60;23.00;;;;;;4373801;32;20436;-38
2021/08/26 09:27:36;;;;;;;;;;;34.60;22.20;;;;;;4373383;32;20417;-38
2021/08/26 09:30:16;;;;;;;;;;;34.70;22.20;;;;;;4373475;32;20002;-37
2021/08/26 09:32:47;;;;;;;;;;;34.70;22.30;;;;;;4359422;32;20038;-37
2021/08/26 09:35:16;;;;;;;;;;;34.70;22.10;;;;;;4358580;32;20039;-39
2021/08/26 09:37:47;;;;;;;;;;;34.70;22.10;;;;;;4358857;32;20386;-39
2021/08/26 09:40:13;;;;;;;;;;;34.80;22.20;;;;;;4358510;32;20265;-38
2021/08/26 09:42:40;;;;;;;;;;;34.80;21.80;;;;;;4358622;32;19969;-38
2021/08/26 09:45:16;;;;;;;;;;;34.90;21.80;;;;;;4358584;32;19965;-39
2021/08/26 09:48:05;;;;;;;;;;;34.70;21.80;;;;;;4344558;32;19962;-38
2021/08/26 09:50:36;;;;;;;;;;;34.60;21.90;;;;;;4358352;32;20442;-38
2021/08/26 09:53:02;;;;;;;;;;;34.50;21.80;;;;;;4358167;32;19958;-38
2021/08/26 09:55:51;;;;;;;;;;;34.40;21.80;;;;;;4358350;32;20526;-38
2021/08/26 09:58:22;;;;;;;;;;;34.30;21.60;;;;;;4358503;32;20025;-39
2021/08/26 10:00:49;;;;;;;;;;;34.30;21.70;;;;;;4358358;32;19961;-38
2021/08/26 10:03:16;;;;;;;;;;;34.40;21.70;;;;;;4358142;32;20027;-38
2021/08/26 10:05:43;;;;;;;;;;;34.50;21.80;;;;;;4358025;32;20126;-39
2021/08/26 10:08:13;;;;;;;;;;;34.60;21.70;;;;;;4357714;32;20386;-38
2021/08/26 10:10:42;;;;;;;;;;;34.50;21.60;;;;;;4344122;32;20034;-38
2021/08/26 10:13:11;;;;;;;;;;;34.60;21.70;;;;;;4344519;32;19958;-37
2021/08/26 10:15:38;;;;;;;;;;;34.70;21.60;;;;;;4331797;32;19965;-37
2021/08/26 10:18:04;;;;;;;;;;;34.60;21.40;;;;;;4344327;32;19960;-39
2021/08/26 10:20:30;;;;;;;;;;;34.70;21.60;;;;;;4356169;32;20430;-38
2021/08/26 10:22:57;;;;;;;;;;;34.80;21.60;;;;;;4357932;32;20033;-38
2021/08/26 10:25:23;;;;;;;;;;;34.80;21.50;;;;;;4358595;32;20416;-38
2021/08/26 10:27:50;;;;;;;;;;;34.80;21.20;;;;;;4358086;32;19960;-37
2021/08/26 10:30:33;;;;;;;;;;;35.00;21.30;;;;;;4357981;32;19982;-38
2021/08/26 10:33:09;;;;;;;;;;;35.00;21.00;;;;;;4358278;32;20086;-38
2021/08/26 10:35:51;;;;;;;;;;;34.90;20.90;;;;;;4358123;32;19965;-39
2021/08/26 10:38:21;;;;;;;;;;;35.10;21.10;;;;;;4357913;32;20491;-38
2021/08/26 10:40:47;;;;;;;;;;;35.10;20.90;;;;;;4343948;32;19986;-38
2021/08/26 10:43:34;;;;;;;;;;;35.20;20.90;;;;;;4357862;32;20402;-38
2021/08/26 10:46:01;;;;;;;;;;;35.20;20.80;;;;;;4344143;32;19989;-38
2021/08/26 10:48:28;;;;;;;;;;;35.10;20.80;;;;;;4357911;32;19969;-42
2021/08/26 10:51:15;;;;;;;;;;;35.20;20.90;;;;;;4333506;32;19962;-37
2021/08/26 10:53:46;;;;;;;;;;;35.10;20.70;;;;;;4360755;32;19989;-37
2021/08/26 10:56:36;;;;;;;;;;;35.00;20.80;;;;;;4360512;32;19969;-38
2021/08/26 10:59:02;;;;;;;;;;;35.00;20.80;;;;;;4360365;32;19957;-38
2021/08/26 11:01:28;;;;;;;;;;;34.80;20.80;;;;;;4360654;32;19954;-39
2021/08/26 11:03:56;;;;;;;;;;;34.80;20.80;;;;;;4328174;33;19992;-38
2021/08/26 11:06:27;;;;;;;;;;;34.70;20.80;;;;;;4328353;33;19981;-38
2021/08/26 11:09:16;;;;;;;;;;;34.70;20.90;;;;;;4328652;33;19954;-39
2021/08/26 11:11:47;;;;;;;;;;;34.70;21.00;;;;;;4322155;33;20043;-39
2021/08/26 11:14:14;;;;;;;;;;;34.60;20.80;;;;;;4328450;33;19963;-38
2021/08/26 11:16:42;;;;;;;;;;;34.40;20.60;;;;;;4328306;33;19962;-38
2021/08/26 11:19:11;;;;;;;;;;;34.40;20.90;;;;;;4328207;33;20001;-38
2021/08/26 11:21:50;;;;;;;;;;;34.40;20.60;;;;;;4328185;33;19958;-39
2021/08/26 11:24:16;;;;;;;;;;;34.40;20.60;;;;;;4328537;33;19966;-39
2021/08/26 11:26:49;;;;;;;;;;;34.40;20.80;;;;;;4328057;33;19962;-37
2021/08/26 11:29:17;;;;;;;;;;;34.40;20.80;;;;;;4328101;33;19962;-39
2021/08/26 11:32:05;;;;;;;;;;;34.40;20.70;;;;;;4343795;32;19960;-39
2021/08/26 11:34:51;;;;;;;;;;;34.60;20.90;;;;;;4358678;32;19973;-38
2021/08/26 11:37:19;;;;;;;;;;;34.60;20.80;;;;;;4359921;32;20041;-39
2021/08/26 11:39:59;;;;;;;;;;;34.40;20.70;;;;;;4346612;32;20034;-39
2021/08/26 11:42:27;;;;;;;;;;;34.30;20.70;;;;;;4360777;32;20066;-38
2021/08/26 11:45:19;;;;;;;;;;;34.30;20.90;;;;;;4360381;32;20399;-38
2021/08/26 11:47:48;;;;;;;;;;;34.40;20.90;;;;;;4360353;32;19985;-38
2021/08/26 11:50:18;;;;;;;;;;;34.40;20.90;;;;;;4360410;32;20354;-39
2021/08/26 11:52:46;;;;;;;;;;;34.50;21.00;;;;;;4360256;32;20007;-39
2021/08/26 11:55:13;;;;;;;;;;;34.60;20.90;;;;;;4360226;32;19973;-38
2021/08/26 11:57:39;;;;;;;;;;;34.60;20.80;;;;;;4346306;32;19965;-39
2021/08/26 12:00:15;;;;;;;;;;;34.80;20.60;;;;;;4359941;32;19954;-38
2021/08/26 12:02:43;;;;;;;;;;;34.80;20.20;;;;;;4359425;32;19961;-39
2021/08/26 12:05:13;;;;;;;;;;;34.70;20.10;;;;;;4346355;32;19958;-38
2021/08/26 12:07:42;;;;;;;;;;;34.70;20.10;;;;;;4313463;33;20453;-39
2021/08/26 12:10:19;;;;;;;;;;;34.70;20.10;;;;;;4313214;33;20033;-39
2021/08/26 12:13:05;;;;;;;;;;;34.70;20.10;;;;;;4312711;33;20480;-38
2021/08/26 12:15:35;;;;;;;;;;;34.70;20.10;;;;;;4313143;33;20384;-43
2021/08/26 12:18:25;;;;;;;;;;;34.60;20.10;;;;;;4312810;33;20462;-38
2021/08/26 12:20:52;;;;;;;;;;;34.60;20.20;;;;;;4307192;33;20399;-37
2021/08/26 12:23:27;;;;;;;;;;;34.50;19.90;;;;;;4312658;33;20027;-38
2021/08/26 12:26:10;;;;;;;;;;;34.40;20.00;;;;;;4312660;33;19979;-38
2021/08/26 12:28:58;;;;;;;;;;;34.40;20.10;;;;;;4312449;33;20063;-39
2021/08/26 12:31:24;;;;;;;;;;;34.40;20.10;;;;;;4318525;33;19981;-38
2021/08/26 12:34:00;;;;;;;;;;;34.40;20.00;;;;;;4327473;33;20070;-38
2021/08/26 12:36:27;;;;;;;;;;;34.40;20.10;;;;;;4327375;33;19967;-38
2021/08/26 12:38:54;;;;;;;;;;;34.50;20.10;;;;;;4314746;33;20005;-38
2021/08/26 12:41:22;;;;;;;;;;;34.50;20.20;;;;;;4327228;33;20474;-38
2021/08/26 12:43:56;;;;;;;;;;;34.50;20.10;;;;;;4327210;33;20556;-37
2021/08/26 12:46:24;;;;;;;;;;;34.50;20.20;;;;;;4345720;32;19990;-39
2021/08/26 12:48:52;;;;;;;;;;;34.50;20.20;;;;;;4359040;32;20058;-38
2021/08/26 12:51:27;;;;;;;;;;;34.40;20.20;;;;;;4359285;32;19964;-38
2021/08/26 12:53:56;;;;;;;;;;;34.40;20.10;;;;;;4345145;32;20385;-38
2021/08/26 12:56:23;;;;;;;;;;;34.40;19.90;;;;;;4359089;32;19958;-39
2021/08/26 12:58:53;;;;;;;;;;;34.40;20.00;;;;;;4358575;32;20025;-39
2021/08/26 13:01:22;;;;;;;;;;;34.50;20.20;;;;;;4359054;32;19961;-38
2021/08/26 13:03:50;;;;;;;;;;;34.50;20.20;;;;;;4358923;32;19965;-37
2021/08/26 13:06:42;;;;;;;;;;;34.50;19.70;;;;;;4358673;32;19996;-38
2021/08/26 13:09:24;;;;;;;;;;;34.40;19.60;;;;;;4358441;32;20468;-39
2021/08/26 13:11:50;;;;;;;;;;;34.30;19.90;;;;;;4346503;32;20432;-38
2021/08/26 13:14:16;;;;;;;;;;;34.30;20.00;;;;;;4358491;32;19991;-39
2021/08/26 13:16:43;;;;;;;;;;;34.30;20.20;;;;;;4358564;32;19969;-39
2021/08/26 13:19:09;;;;;;;;;;;34.30;20.20;;;;;;4358700;32;19965;-39
2021/08/26 13:21:35;;;;;;;;;;;34.20;20.20;;;;;;4358809;32;19996;-37
2021/08/26 13:24:01;;;;;;;;;;;34.20;20.10;;;;;;4358828;32;19974;-39
2021/08/26 13:26:28;;;;;;;;;;;34.10;19.90;;;;;;4344664;32;20039;-39
2021/08/26 13:28:54;;;;;;;;;;;33.90;19.90;;;;;;4358338;32;19962;-38
2021/08/26 13:31:21;;;;;;;;;;;33.70;20.00;;;;;;4364006;32;20017;-38
2021/08/26 13:33:47;;;;;;;;;;;33.70;20.00;;;;;;4373118;32;19958;-37
2021/08/26 13:36:14;;;;;;;;;;;33.70;20.20;;;;;;4373496;32;19999;-39
2021/08/26 13:38:40;;;;;;;;;;;33.60;20.40;;;;;;4373699;32;19954;-39
2021/08/26 13:41:06;;;;;;;;;;;33.50;20.40;;;;;;4373502;32;20001;-38
2021/08/26 13:43:33;;;;;;;;;;;33.40;20.40;;;;;;4373672;32;19971;-39
2021/08/26 13:45:59;;;;;;;;;;;33.40;20.50;;;;;;4373346;32;19992;-37
2021/08/26 13:48:25;;;;;;;;;;;33.30;20.50;;;;;;4373312;32;19962;-38
2021/08/26 13:50:51;;;;;;;;;;;33.30;20.60;;;;;;4373289;32;19957;-39
2021/08/26 13:53:18;;;;;;;;;;;33.30;20.80;;;;;;4373521;32;20054;-38
2021/08/26 13:55:44;;;;;;;;;;;33.30;20.80;;;;;;4359314;32;19946;-39
2021/08/26 13:58:10;;;;;;;;;;;33.30;20.90;;;;;;4373808;32;20492;-38
2021/08/26 14:00:36;;;;;;;;;;;33.10;20.90;;;;;;4373262;32;19965;-38
2021/08/26 14:03:03;;;;;;;;;;;33.10;20.90;;;;;;4373066;32;19991;-38
2021/08/26 14:05:30;;;;;;;;;;;33.00;21.10;;;;;;4372838;32;20129;-38
2021/08/26 14:07:56;;;;;;;;;;;32.90;21.10;;;;;;4372469;32;19957;-38
2021/08/26 14:10:23;;;;;;;;;;;32.90;21.30;;;;;;4373018;32;20429;-37
2021/08/26 14:12:49;;;;;;;;;;;33.00;21.30;;;;;;4372668;32;20031;-38
2021/08/26 14:15:16;;;;;;;;;;;33.00;21.30;;;;;;4372936;32;20383;-39
2021/08/26 14:17:42;;;;;;;;;;;33.00;21.30;;;;;;4373048;32;19976;-39
2021/08/26 14:20:09;;;;;;;;;;;32.90;21.30;;;;;;4372617;32;19989;-38
2021/08/26 14:22:37;;;;;;;;;;;33.00;21.30;;;;;;4373068;32;19962;-38
2021/08/26 14:25:04;;;;;;;;;;;32.90;21.40;;;;;;4373048;32;20038;-38
2021/08/26 14:27:31;;;;;;;;;;;32.90;20.90;;;;;;4376076;32;19992;-39